Sunday, December 16, 2018, 6:14 PM GMT
Back to Local

CYWA, Petawawa, Ont.

Location: , , Canada Lat: 45.95
Local Time: 6:14 PM GMT (18:14 GMT) Lon: -77.317
Time Zone: GMT Elev: 426 ft

Show me the last for .
Show Decoded

2018-12-16 18:00 METAR CYWA 161800Z AUTO 13005KT 9SM CLR M01/M02 A3004 RMK SLP181 =
2018-12-16 17:00 METAR CYWA 161700Z AUTO 00000KT 9SM CLR M03/M04 A3007 RMK PCPN 0.5MM PAST HR
                 SLP193 =
2018-12-16 16:00 METAR CYWA 161600Z AUTO 00000KT 9SM FEW089 FEW098 M05/M05 A3012 RMK SLP208 =
2018-12-16 15:00 METAR CYWA 161500Z AUTO 26002KT 9SM CLR M08/M09 A3014 RMK SLP218 =
2018-12-16 14:00 METAR CYWA 161400Z AUTO 00000KT 9SM CLR M10/M10 A3018 RMK SLP229 =
2018-12-16 13:00 METAR CYWA 161300Z AUTO 25002KT 9SM CLR M11/M12 A3019 RMK ICG PAST HR SLP234 =
2018-12-16 12:00 METAR CYWA 161200Z AUTO 00000KT 9SM CLR M11/M12 A3021 RMK ICG SLP241 =
2018-12-16 11:00 METAR CYWA 161100Z AUTO 00000KT 9SM CLR M11/M12 A3022 RMK SLP242 =
2018-12-16 10:00 METAR CYWA 161000Z AUTO 00000KT 9SM CLR M10/M11 A3021 RMK SLP240 =
2018-12-16 09:00 METAR CYWA 160900Z AUTO 00000KT 9SM BKN025 M08/M09 A3023 RMK ICG PAST HR SLP246
                 =
2018-12-16 08:24 METAR CYWA 160824Z AUTO 00000KT 9SM OVC025 M08/M09 A3023 RMK ICG PAST HR =
2018-12-16 08:22 METAR CYWA 160822Z AUTO 00000KT 4SM OVC001 M08/M09 A3023 RMK ICG PAST HR =
2018-12-16 08:19 METAR CYWA 160819Z AUTO 00000KT 1SM OVC001 M08/M09 A3023 RMK VSBY VRBL 0.3V9.+
                 ICG PAST HR =
2018-12-16 08:04 METAR CYWA 160804Z AUTO 00000KT 3/8SM OVC001 M08/M09 A3023 RMK ICG INTMT =
2018-12-16 08:00 METAR CYWA 160800Z AUTO 00000KT 5/8SM OVC001 M09/M09 A3023 RMK VSBY VRBL 0.4V5.0
                 ICG INTMT SLP245 =
2018-12-16 07:59 METAR CYWA 160759Z AUTO 00000KT 3/4SM OVC001 M09/M09 A3023 RMK VSBY VRBL 0.4V5.0
                 ICG INTMT =
2018-12-16 07:57 METAR CYWA 160757Z AUTO 00000KT 1 1/4SM BKN001 BKN023 M09/M09 A3023 RMK VSBY
                 VRBL 0.4V9.+ ICG INTMT =
2018-12-16 07:56 METAR CYWA 160756Z AUTO 00000KT 1 3/4SM BKN000 BKN023 M08/M09 A3023 RMK VSBY
                 VRBL 0.4V9.+ ICG INTMT =
2018-12-16 07:52 METAR CYWA 160752Z AUTO 00000KT 3SM OVC000 OVC007 OVC023 M08/M09 A3023 RMK ICG
                 INTMT =
2018-12-16 07:50 METAR CYWA 160750Z AUTO 00000KT 1 1/4SM VV001 M08/M09 A3023 RMK VSBY VRBL
                 0.4V9.+ ICG PAST HR =
2018-12-16 07:47 METAR CYWA 160747Z AUTO 00000KT 1/2SM BKN001 OVC007 OVC023 M08/M09 A3023 RMK
                 VSBY VRBL 0.2V9.0 ICG PAST HR =
2018-12-16 07:36 METAR CYWA 160736Z AUTO 33002KT 1/8SM BKN001 OVC007 M08/M08 A3024 RMK ICG =
2018-12-16 07:27 METAR CYWA 160727Z AUTO 00000KT 1/8SM SCT000 OVC007 OVC025 M08/M08 A3024 RMK ICG
                 =
2018-12-16 07:25 METAR CYWA 160725Z AUTO 00000KT 1/4SM FEW000 OVC007 OVC025 M08/M08 A3024 RMK ICG
                 =
2018-12-16 07:13 METAR CYWA 160713Z AUTO 29002KT 1/8SM FEW001 OVC007 OVC025 M08/M09 A3024 RMK ICG
                 =
2018-12-16 07:00 METAR CYWA 160700Z AUTO 00000KT 1/8SM VV001 M09/M09 A3024 RMK ICG SLP249 =
2018-12-16 06:00 METAR CYWA 160600Z AUTO 00000KT 1/8SM VV001 M09/M09 A3024 RMK ICG PAST HR SLP250
                 =
2018-12-16 05:56 METAR CYWA 160556Z AUTO 00000KT 1/8SM VV001 M09/M09 A3024 RMK ICG PAST HR =
2018-12-16 05:49 METAR CYWA 160549Z AUTO 00000KT 3/8SM VV001 M08/M09 A3024 RMK ICG PAST HR =
2018-12-16 05:47 METAR CYWA 160547Z AUTO 00000KT 5/8SM VV001 M08/M09 A3024 RMK ICG PAST HR =
2018-12-16 05:45 METAR CYWA 160545Z AUTO 00000KT 3/4SM VV001 M08/M09 A3024 RMK VSBY VRBL 0.4V9.+
                 ICG PAST HR =
2018-12-16 05:44 METAR CYWA 160544Z AUTO 00000KT 1SM VV001 M08/M09 A3024 RMK VSBY VRBL 0.4V9.+
                 ICG PAST HR =
2018-12-16 05:42 METAR CYWA 160542Z AUTO 00000KT 2 1/4SM VV001 M08/M09 A3024 RMK VSBY VRBL
                 0.7V9.+ ICG PAST HR =
2018-12-16 05:24 METAR CYWA 160524Z AUTO 00000KT 9SM BKN001 M08/M09 A3025 RMK ICG INTMT =
2018-12-16 05:00 METAR CYWA 160500Z AUTO 00000KT 9SM CLR M08/M09 A3025 RMK ICG INTMT SLP251 =
2018-12-16 04:00 METAR CYWA 160400Z AUTO 00000KT 9SM CLR M07/M08 A3026 RMK ICG INTMT SLP256 =
2018-12-16 03:00 METAR CYWA 160300Z AUTO 00000KT 7SM CLR M07/M07 A3027 RMK ICG SLP261 =
2018-12-16 02:54 METAR CYWA 160254Z AUTO 00000KT 4SM CLR M07/M08 A3028 RMK ICG =
2018-12-16 02:44 METAR CYWA 160244Z AUTO 00000KT 1SM CLR M06/M07 A3027 RMK VSBY VRBL 0.5V9.+ =
2018-12-16 02:42 METAR CYWA 160242Z AUTO 00000KT 5/8SM CLR M06/M07 A3028 RMK VSBY VRBL 0.2V9.+ =
2018-12-16 02:38 METAR CYWA 160238Z AUTO 00000KT 1/8SM FEW028 M06/M07 A3028 RMK ICG PAST HR =
2018-12-16 02:15 METAR CYWA 160215Z AUTO 00000KT 1/8SM BKN001 M07/M07 A3028 RMK ICG PAST HR =
2018-12-16 02:11 METAR CYWA 160211Z AUTO 00000KT 1/8SM CLR M06/M07 A3028 RMK ICG PAST HR =
2018-12-16 02:05 METAR CYWA 160205Z AUTO 00000KT 1/8SM VV001 M06/M07 A3029 RMK ICG PAST HR =
2018-12-16 02:02 METAR CYWA 160202Z AUTO 00000KT 3/8SM VV001 M06/M07 A3029 RMK VSBY VRBL 0.1V4.0
                 ICG PAST HR =
2018-12-16 02:01 METAR CYWA 160201Z AUTO 00000KT 1/2SM VV001 M06/M07 A3029 RMK VSBY VRBL 0.2V4.0
                 ICG PAST HR =
2018-12-16 02:00 METAR CYWA 160200Z AUTO 00000KT 3/8SM VV001 M06/M07 A3029 RMK VSBY VRBL 0.2V4.0
                 ICG PAST HR SLP268 =
2018-12-16 01:48 METAR CYWA 160148Z AUTO 00000KT 3/8SM VV001 M06/M07 A3029 RMK ICG PAST HR =
2018-12-16 01:47 METAR CYWA 160147Z AUTO 00000KT 5/8SM VV001 M06/M07 A3029 RMK VSBY VRBL 0.2V5.0
                 ICG PAST HR =
2018-12-16 01:46 METAR CYWA 160146Z AUTO 00000KT 3/4SM VV001 M07/M07 A3030 RMK VSBY VRBL 0.3V5.0
                 ICG PAST HR =
2018-12-16 01:45 METAR CYWA 160145Z AUTO 00000KT 1SM VV001 M06/M07 A3030 RMK VSBY VRBL 0.3V9.+
                 ICG PAST HR =
2018-12-16 01:44 METAR CYWA 160144Z AUTO 00000KT 1 5/8SM BKN001 M06/M07 A3030 RMK VSBY VRBL
                 0.3V9.+ ICG PAST HR =
2018-12-16 01:41 METAR CYWA 160141Z AUTO 00000KT 5SM BKN001 M06/M07 A3030 RMK ICG =
2018-12-16 01:29 METAR CYWA 160129Z AUTO 00000KT 5SM CLR M06/M06 A3031 RMK ICG =
2018-12-16 01:19 METAR CYWA 160119Z AUTO 00000KT 2 1/4SM CLR M05/M06 A3031 RMK VSBY VRBL 0.4V9.+
                 ICG =
2018-12-16 01:17 METAR CYWA 160117Z AUTO 00000KT 3/4SM CLR M05/M06 A3031 RMK VSBY VRBL 0.3V9.+
                 ICG =
2018-12-16 01:02 METAR CYWA 160102Z AUTO 00000KT 3/8SM CLR M05/M05 A3031 RMK VSBY VRBL 0.2V9.+
                 ICG =
2018-12-16 01:00 METAR CYWA 160100Z AUTO 00000KT 5/8SM CLR M05/M06 A3031 RMK VSBY VRBL 0.2V9.+
                 ICG SLP273 =
2018-12-16 00:59 METAR CYWA 160059Z AUTO 00000KT 1SM CLR M05/M06 A3031 RMK VSBY VRBL 0.2V9.+ ICG
                 =
2018-12-16 00:58 METAR CYWA 160058Z AUTO 00000KT 2SM CLR M05/M06 A3031 RMK VSBY VRBL 0.4V9.+ ICG
                 =
2018-12-16 00:49 METAR CYWA 160049Z AUTO 00000KT 9SM CLR M05/M05 A3031 RMK ICG =
2018-12-16 00:37 METAR CYWA 160037Z AUTO 00000KT 1 1/2SM CLR M05/M06 A3031 RMK VSBY VRBL 0.5V5.0
                 ICG =
2018-12-16 00:34 METAR CYWA 160034Z AUTO 00000KT 1/2SM CLR M05/M06 A3032 RMK VSBY VRBL 0.2V5.0
                 ICG =
2018-12-16 00:15 METAR CYWA 160015Z AUTO 00000KT 1/8SM CLR M04/M04 A3031 RMK ICG =
2018-12-16 00:09 METAR CYWA 160009Z AUTO 00000KT 3/8SM CLR M04/M04 A3030 RMK VSBY VRBL 0.1V9.0
                 ICG =
2018-12-16 00:00 METAR CYWA 160000Z AUTO 00000KT 5/8SM CLR M03/M04 A3029 RMK VSBY VRBL 0.2V9.0
                 ICG SLP267 =
2018-12-15 23:57 METAR CYWA 152357Z AUTO 00000KT 5/8SM CLR M04/M04 A3029 RMK VSBY VRBL 0.2V9.+
                 ICG =
2018-12-15 23:56 METAR CYWA 152356Z AUTO 00000KT 3/4SM CLR M04/M04 A3029 RMK VSBY VRBL 0.2V9.+
                 ICG =
2018-12-15 23:55 METAR CYWA 152355Z AUTO 00000KT 1 1/4SM CLR M04/M04 A3029 RMK VSBY VRBL 0.3V9.+
                 ICG =
2018-12-15 23:49 METAR CYWA 152349Z AUTO 00000KT 1 3/4SM CLR M04/M05 A3029 RMK VSBY VRBL 0.5V9.+
                 ICG =
2018-12-15 23:47 METAR CYWA 152347Z AUTO 00000KT 3/4SM CLR M04/M05 A3029 RMK VSBY VRBL 0.3V9.0
                 ICG =
2018-12-15 23:34 METAR CYWA 152334Z AUTO 00000KT 3/8SM CLR M04/M04 A3029 RMK VSBY VRBL 0.2V9.+
                 ICG =
2018-12-15 23:31 METAR CYWA 152331Z AUTO 00000KT 5/8SM CLR M04/M04 A3029 RMK VSBY VRBL 0.2V9.+
                 ICG =
2018-12-15 23:30 METAR CYWA 152330Z AUTO 25002KT 3/4SM CLR M04/M04 A3029 RMK VSBY VRBL 0.2V9.+
                 ICG =
2018-12-15 23:29 METAR CYWA 152329Z AUTO 25002KT 1 1/4SM CLR M04/M04 A3029 RMK VSBY VRBL 0.2V9.+
                 ICG =
2018-12-15 23:28 METAR CYWA 152328Z AUTO 00000KT 2 1/4SM CLR M04/M04 A3029 RMK VSBY VRBL 0.4V9.+
                 ICG =
2018-12-15 23:26 METAR CYWA 152326Z AUTO 00000KT 3SM CLR M03/M04 A3029 RMK ICG =
2018-12-15 23:17 METAR CYWA 152317Z AUTO 00000KT 1 1/4SM CLR M03/M04 A3029 RMK ICG =
2018-12-15 23:00 METAR CYWA 152300Z AUTO 00000KT 2SM CLR M03/M04 A3029 RMK VSBY VRBL 0.6V9.+
                 SLP265 =
2018-12-15 22:57 METAR CYWA 152257Z AUTO 00000KT 2 1/4SM CLR M03/M04 A3029 RMK VSBY VRBL 0.6V9.+
                 =
2018-12-15 22:48 METAR CYWA 152248Z AUTO 00000KT 9SM CLR M03/M03 A3029 =
2018-12-15 22:33 METAR CYWA 152233Z AUTO 26002KT 2 1/2SM CLR M03/M04 A3028 RMK VSBY VRBL 0.8V9.+
                 =
2018-12-15 22:00 METAR CYWA 152200Z AUTO 00000KT 9SM CLR M00/M02 A3027 RMK SLP259 =
2018-12-15 21:00 METAR CYWA 152100Z AUTO 10002KT 9SM BKN027 02/M01 A3027 RMK SLP257 =
2018-12-15 20:00 METAR CYWA 152000Z AUTO 01002KT 9SM FEW027 03/M02 A3025 RMK SLP251 =
2018-12-15 19:00 METAR CYWA 151900Z AUTO 35002KT 9SM CLR 03/M02 A3024 RMK SLP247 =

Support USWX by starting your Amazon purchase here.